Colfax, Wisconsin
Current Conditions -  °F | °C
As of 8:55 PM on Thursday 27 Nov 2014 (Local Time) from KLUM Reporting Station
Scattered Clouds Scattered Clouds  
Wind Chill:   Ceiling: Unl
Heat Index:   Visibility: 10mi
Dew Point: -1°   Wind: 3mph
Humidity: 66%   Direction: 120°ESE
Pressure: 30.34"   Gusts: NA
Location:  45°N, 91.73°W
Report Text: KLUM 280255Z AUTO 12003KT 10SM SCT120 M13/M18 A3034 RMK AO2 T11301182
Loading
Personal Weather Stations






























Interactive Weather Map New forecast layout! Learn more

10-Day Weather Forecast

Advertisements
Track Severe Weather on mobile